sensor_id;sensor_type;location;lat;lon;timestamp;P1;durP1;ratioP1;P2;durP2;ratioP2
9773;SDS011;4926;42.670;23.316;2023-02-18T00:01:19;22.60;;;15.10;;
9773;SDS011;4926;42.670;23.316;2023-02-18T00:03:46;22.20;;;13.15;;
9773;SDS011;4926;42.670;23.316;2023-02-18T00:06:19;20.63;;;12.60;;
9773;SDS011;4926;42.670;23.316;2023-02-18T00:08:49;19.27;;;12.27;;
9773;SDS011;4926;42.670;23.316;2023-02-18T00:11:21;17.70;;;11.80;;
9773;SDS011;4926;42.670;23.316;2023-02-18T00:13:48;20.73;;;11.80;;
9773;SDS011;4926;42.670;23.316;2023-02-18T00:16:16;18.10;;;11.15;;
9773;SDS011;4926;42.670;23.316;2023-02-18T00:18:43;19.33;;;11.30;;
9773;SDS011;4926;42.670;23.316;2023-02-18T00:21:09;20.77;;;12.65;;
9773;SDS011;4926;42.670;23.316;2023-02-18T00:23:36;20.73;;;12.98;;
9773;SDS011;4926;42.670;23.316;2023-02-18T00:26:05;22.67;;;13.95;;
9773;SDS011;4926;42.670;23.316;2023-02-18T00:28:36;19.27;;;12.13;;
9773;SDS011;4926;42.670;23.316;2023-02-18T00:31:12;17.60;;;11.40;;
9773;SDS011;4926;42.670;23.316;2023-02-18T00:33:40;19.00;;;10.95;;
9773;SDS011;4926;42.670;23.316;2023-02-18T00:36:08;19.83;;;11.73;;
9773;SDS011;4926;42.670;23.316;2023-02-18T00:38:36;20.95;;;11.98;;
9773;SDS011;4926;42.670;23.316;2023-02-18T00:41:06;18.90;;;11.75;;
9773;SDS011;4926;42.670;23.316;2023-02-18T00:43:32;21.85;;;11.90;;
9773;SDS011;4926;42.670;23.316;2023-02-18T00:45:59;19.05;;;11.30;;
9773;SDS011;4926;42.670;23.316;2023-02-18T00:48:26;20.73;;;11.57;;
9773;SDS011;4926;42.670;23.316;2023-02-18T00:51:02;18.77;;;11.40;;
9773;SDS011;4926;42.670;23.316;2023-02-18T00:53:30;19.30;;;11.63;;
9773;SDS011;4926;42.670;23.316;2023-02-18T00:55:57;19.23;;;11.88;;
9773;SDS011;4926;42.670;23.316;2023-02-18T00:58:25;20.30;;;11.38;;
9773;SDS011;4926;42.670;23.316;2023-02-18T01:00:53;23.85;;;11.73;;
9773;SDS011;4926;42.670;23.316;2023-02-18T01:03:20;18.98;;;11.73;;
9773;SDS011;4926;42.670;23.316;2023-02-18T01:05:48;17.40;;;11.18;;
9773;SDS011;4926;42.670;23.316;2023-02-18T01:08:15;20.08;;;11.38;;
9773;SDS011;4926;42.670;23.316;2023-02-18T01:10:43;17.98;;;10.27;;
9773;SDS011;4926;42.670;23.316;2023-02-18T01:13:14;18.23;;;10.90;;
9773;SDS011;4926;42.670;23.316;2023-02-18T01:15:43;19.88;;;10.95;;
9773;SDS011;4926;42.670;23.316;2023-02-18T01:18:10;16.65;;;10.63;;
9773;SDS011;4926;42.670;23.316;2023-02-18T01:20:40;22.77;;;11.85;;
9773;SDS011;4926;42.670;23.316;2023-02-18T01:23:08;20.23;;;11.32;;
9773;SDS011;4926;42.670;23.316;2023-02-18T01:25:35;19.65;;;11.43;;
9773;SDS011;4926;42.670;23.316;2023-02-18T01:28:07;19.88;;;11.52;;
9773;SDS011;4926;42.670;23.316;2023-02-18T01:30:35;16.88;;;10.73;;
9773;SDS011;4926;42.670;23.316;2023-02-18T01:33:06;17.33;;;10.18;;
9773;SDS011;4926;42.670;23.316;2023-02-18T01:35:36;23.95;;;12.45;;
9773;SDS011;4926;42.670;23.316;2023-02-18T01:38:03;17.92;;;10.65;;
9773;SDS011;4926;42.670;23.316;2023-02-18T01:40:30;19.08;;;11.35;;
9773;SDS011;4926;42.670;23.316;2023-02-18T01:42:57;19.17;;;11.02;;
9773;SDS011;4926;42.670;23.316;2023-02-18T01:48:16;15.15;;;10.10;;
9773;SDS011;4926;42.670;23.316;2023-02-18T01:50:47;15.60;;;9.63;;
9773;SDS011;4926;42.670;23.316;2023-02-18T01:53:22;19.20;;;10.43;;
9773;SDS011;4926;42.670;23.316;2023-02-18T01:55:53;19.25;;;9.82;;
9773;SDS011;4926;42.670;23.316;2023-02-18T01:58:20;15.90;;;10.35;;
9773;SDS011;4926;42.670;23.316;2023-02-18T02:00:50;18.15;;;11.05;;
9773;SDS011;4926;42.670;23.316;2023-02-18T02:03:18;20.45;;;10.90;;
9773;SDS011;4926;42.670;23.316;2023-02-18T02:05:44;18.05;;;10.82;;
9773;SDS011;4926;42.670;23.316;2023-02-18T02:08:11;17.95;;;10.57;;
9773;SDS011;4926;42.670;23.316;2023-02-18T02:10:41;15.82;;;10.43;;
9773;SDS011;4926;42.670;23.316;2023-02-18T02:13:19;18.65;;;11.05;;
9773;SDS011;4926;42.670;23.316;2023-02-18T02:15:56;15.70;;;10.45;;
9773;SDS011;4926;42.670;23.316;2023-02-18T02:18:36;16.65;;;10.25;;
9773;SDS011;4926;42.670;23.316;2023-02-18T02:21:33;16.15;;;10.23;;
9773;SDS011;4926;42.670;23.316;2023-02-18T02:24:22;20.83;;;10.52;;
9773;SDS011;4926;42.670;23.316;2023-02-18T02:27:19;19.05;;;10.88;;
9773;SDS011;4926;42.670;23.316;2023-02-18T02:36:03;17.48;;;10.75;;
9773;SDS011;4926;42.670;23.316;2023-02-18T02:38:35;19.98;;;11.15;;
9773;SDS011;4926;42.670;23.316;2023-02-18T02:41:12;16.38;;;10.63;;
9773;SDS011;4926;42.670;23.316;2023-02-18T02:43:50;15.18;;;10.80;;
9773;SDS011;4926;42.670;23.316;2023-02-18T02:46:25;14.93;;;10.13;;
9773;SDS011;4926;42.670;23.316;2023-02-18T02:48:57;19.00;;;10.90;;
9773;SDS011;4926;42.670;23.316;2023-02-18T02:51:35;15.85;;;10.13;;
9773;SDS011;4926;42.670;23.316;2023-02-18T02:54:08;19.85;;;10.38;;
9773;SDS011;4926;42.670;23.316;2023-02-18T02:56:37;17.73;;;10.48;;
9773;SDS011;4926;42.670;23.316;2023-02-18T02:59:10;25.25;;;11.13;;
9773;SDS011;4926;42.670;23.316;2023-02-18T03:01:44;17.00;;;10.48;;
9773;SDS011;4926;42.670;23.316;2023-02-18T03:07:38;20.38;;;11.25;;
9773;SDS011;4926;42.670;23.316;2023-02-18T03:10:24;19.48;;;11.32;;
9773;SDS011;4926;42.670;23.316;2023-02-18T03:13:06;22.80;;;11.73;;
9773;SDS011;4926;42.670;23.316;2023-02-18T03:15:43;18.65;;;11.38;;
9773;SDS011;4926;42.670;23.316;2023-02-18T03:18:17;17.60;;;10.60;;
9773;SDS011;4926;42.670;23.316;2023-02-18T03:20:50;20.92;;;11.55;;
9773;SDS011;4926;42.670;23.316;2023-02-18T03:23:23;18.63;;;11.02;;
9773;SDS011;4926;42.670;23.316;2023-02-18T03:25:55;16.83;;;10.85;;
9773;SDS011;4926;42.670;23.316;2023-02-18T03:28:25;21.08;;;11.40;;
9773;SDS011;4926;42.670;23.316;2023-02-18T03:30:58;18.50;;;10.68;;
9773;SDS011;4926;42.670;23.316;2023-02-18T03:33:30;17.10;;;10.98;;
9773;SDS011;4926;42.670;23.316;2023-02-18T03:36:01;18.50;;;11.30;;
9773;SDS011;4926;42.670;23.316;2023-02-18T03:38:30;18.10;;;11.18;;
9773;SDS011;4926;42.670;23.316;2023-02-18T03:41:02;19.00;;;11.15;;
9773;SDS011;4926;42.670;23.316;2023-02-18T03:43:31;18.38;;;10.63;;
9773;SDS011;4926;42.670;23.316;2023-02-18T03:45:59;24.27;;;12.20;;
9773;SDS011;4926;42.670;23.316;2023-02-18T03:48:26;20.42;;;12.73;;
9773;SDS011;4926;42.670;23.316;2023-02-18T03:50:56;20.80;;;11.45;;
9773;SDS011;4926;42.670;23.316;2023-02-18T03:53:25;19.70;;;12.15;;
9773;SDS011;4926;42.670;23.316;2023-02-18T03:55:53;19.92;;;10.90;;
9773;SDS011;4926;42.670;23.316;2023-02-18T03:58:23;23.00;;;12.57;;
9773;SDS011;4926;42.670;23.316;2023-02-18T04:00:52;19.90;;;11.88;;
9773;SDS011;4926;42.670;23.316;2023-02-18T04:03:22;20.25;;;11.20;;
9773;SDS011;4926;42.670;23.316;2023-02-18T04:05:51;23.92;;;13.63;;
9773;SDS011;4926;42.670;23.316;2023-02-18T04:08:24;23.05;;;13.00;;
9773;SDS011;4926;42.670;23.316;2023-02-18T04:10:51;20.42;;;11.77;;
9773;SDS011;4926;42.670;23.316;2023-02-18T04:13:19;20.02;;;12.20;;
9773;SDS011;4926;42.670;23.316;2023-02-18T04:15:47;23.50;;;13.25;;
9773;SDS011;4926;42.670;23.316;2023-02-18T04:18:14;22.27;;;12.00;;
9773;SDS011;4926;42.670;23.316;2023-02-18T04:20:44;19.52;;;11.80;;
9773;SDS011;4926;42.670;23.316;2023-02-18T04:23:11;19.73;;;12.07;;
9773;SDS011;4926;42.670;23.316;2023-02-18T04:25:41;22.13;;;12.70;;
9773;SDS011;4926;42.670;23.316;2023-02-18T04:28:08;17.65;;;11.20;;
9773;SDS011;4926;42.670;23.316;2023-02-18T04:30:38;20.00;;;11.95;;
9773;SDS011;4926;42.670;23.316;2023-02-18T04:33:09;18.20;;;11.35;;
9773;SDS011;4926;42.670;23.316;2023-02-18T04:35:36;17.75;;;11.32;;
9773;SDS011;4926;42.670;23.316;2023-02-18T04:38:05;20.23;;;11.48;;
9773;SDS011;4926;42.670;23.316;2023-02-18T04:40:32;21.25;;;11.35;;
9773;SDS011;4926;42.670;23.316;2023-02-18T04:43:00;18.67;;;11.40;;
9773;SDS011;4926;42.670;23.316;2023-02-18T04:45:27;18.15;;;11.18;;
9773;SDS011;4926;42.670;23.316;2023-02-18T04:47:58;21.35;;;12.23;;
9773;SDS011;4926;42.670;23.316;2023-02-18T04:50:24;15.50;;;10.20;;
9773;SDS011;4926;42.670;23.316;2023-02-18T04:52:51;18.20;;;11.02;;
9773;SDS011;4926;42.670;23.316;2023-02-18T04:55:21;17.50;;;10.48;;
9773;SDS011;4926;42.670;23.316;2023-02-18T04:57:48;16.30;;;10.95;;
9773;SDS011;4926;42.670;23.316;2023-02-18T05:00:15;18.63;;;10.85;;
9773;SDS011;4926;42.670;23.316;2023-02-18T05:02:44;18.70;;;11.15;;
9773;SDS011;4926;42.670;23.316;2023-02-18T05:05:13;20.85;;;12.63;;
9773;SDS011;4926;42.670;23.316;2023-02-18T05:07:41;18.75;;;11.82;;
9773;SDS011;4926;42.670;23.316;2023-02-18T05:10:08;17.95;;;10.90;;
9773;SDS011;4926;42.670;23.316;2023-02-18T05:12:36;20.83;;;11.68;;
9773;SDS011;4926;42.670;23.316;2023-02-18T05:15:03;19.42;;;11.65;;
9773;SDS011;4926;42.670;23.316;2023-02-18T05:17:30;23.88;;;11.63;;
9773;SDS011;4926;42.670;23.316;2023-02-18T05:19:57;21.35;;;11.27;;
9773;SDS011;4926;42.670;23.316;2023-02-18T05:22:25;16.92;;;11.18;;
9773;SDS011;4926;42.670;23.316;2023-02-18T05:24:52;18.13;;;11.52;;
9773;SDS011;4926;42.670;23.316;2023-02-18T05:27:18;23.27;;;11.52;;
9773;SDS011;4926;42.670;23.316;2023-02-18T05:29:47;18.15;;;11.10;;
9773;SDS011;4926;42.670;23.316;2023-02-18T05:32:16;20.75;;;11.85;;
9773;SDS011;4926;42.670;23.316;2023-02-18T05:34:43;15.73;;;10.13;;
9773;SDS011;4926;42.670;23.316;2023-02-18T05:37:10;16.48;;;10.45;;
9773;SDS011;4926;42.670;23.316;2023-02-18T05:39:44;15.27;;;10.00;;
9773;SDS011;4926;42.670;23.316;2023-02-18T05:42:13;21.10;;;10.35;;
9773;SDS011;4926;42.670;23.316;2023-02-18T05:44:40;16.15;;;9.90;;
9773;SDS011;4926;42.670;23.316;2023-02-18T05:47:08;19.30;;;9.82;;
9773;SDS011;4926;42.670;23.316;2023-02-18T05:49:37;18.80;;;11.70;;
9773;SDS011;4926;42.670;23.316;2023-02-18T05:52:05;20.48;;;10.70;;
9773;SDS011;4926;42.670;23.316;2023-02-18T05:54:33;17.73;;;11.45;;
9773;SDS011;4926;42.670;23.316;2023-02-18T05:57:04;19.75;;;11.70;;
9773;SDS011;4926;42.670;23.316;2023-02-18T05:59:31;21.00;;;12.10;;
9773;SDS011;4926;42.670;23.316;2023-02-18T06:01:58;20.35;;;11.90;;
9773;SDS011;4926;42.670;23.316;2023-02-18T06:04:25;21.25;;;12.73;;
9773;SDS011;4926;42.670;23.316;2023-02-18T06:06:52;18.90;;;10.82;;
9773;SDS011;4926;42.670;23.316;2023-02-18T06:09:19;15.55;;;8.90;;
9773;SDS011;4926;42.670;23.316;2023-02-18T06:11:46;17.00;;;10.13;;
9773;SDS011;4926;42.670;23.316;2023-02-18T06:14:14;19.27;;;10.57;;
9773;SDS011;4926;42.670;23.316;2023-02-18T06:16:41;21.15;;;10.23;;
9773;SDS011;4926;42.670;23.316;2023-02-18T06:19:07;16.50;;;10.18;;
9773;SDS011;4926;42.670;23.316;2023-02-18T06:21:37;17.50;;;11.60;;
9773;SDS011;4926;42.670;23.316;2023-02-18T06:24:04;18.77;;;10.80;;
9773;SDS011;4926;42.670;23.316;2023-02-18T06:26:33;16.35;;;9.98;;
9773;SDS011;4926;42.670;23.316;2023-02-18T06:29:00;23.10;;;10.55;;
9773;SDS011;4926;42.670;23.316;2023-02-18T06:31:28;16.25;;;10.00;;
9773;SDS011;4926;42.670;23.316;2023-02-18T06:33:55;16.33;;;10.23;;
9773;SDS011;4926;42.670;23.316;2023-02-18T06:36:25;16.95;;;9.93;;
9773;SDS011;4926;42.670;23.316;2023-02-18T06:38:52;21.25;;;10.25;;
9773;SDS011;4926;42.670;23.316;2023-02-18T06:41:23;21.20;;;11.13;;
9773;SDS011;4926;42.670;23.316;2023-02-18T06:43:59;18.73;;;11.43;;
9773;SDS011;4926;42.670;23.316;2023-02-18T06:46:26;19.20;;;10.50;;
9773;SDS011;4926;42.670;23.316;2023-02-18T06:48:56;22.67;;;9.93;;
9773;SDS011;4926;42.670;23.316;2023-02-18T06:51:30;20.48;;;10.43;;
9773;SDS011;4926;42.670;23.316;2023-02-18T06:54:02;17.15;;;10.52;;
9773;SDS011;4926;42.670;23.316;2023-02-18T06:56:29;16.35;;;10.73;;
9773;SDS011;4926;42.670;23.316;2023-02-18T06:58:59;20.65;;;10.70;;
9773;SDS011;4926;42.670;23.316;2023-02-18T07:01:28;17.75;;;10.32;;
9773;SDS011;4926;42.670;23.316;2023-02-18T07:03:58;18.33;;;10.93;;
9773;SDS011;4926;42.670;23.316;2023-02-18T07:06:25;19.83;;;10.30;;
9773;SDS011;4926;42.670;23.316;2023-02-18T07:08:54;22.33;;;11.15;;
9773;SDS011;4926;42.670;23.316;2023-02-18T07:11:24;22.85;;;12.60;;
9773;SDS011;4926;42.670;23.316;2023-02-18T07:13:53;24.08;;;12.27;;
9773;SDS011;4926;42.670;23.316;2023-02-18T07:16:21;20.75;;;11.10;;
9773;SDS011;4926;42.670;23.316;2023-02-18T07:18:48;22.80;;;11.70;;
9773;SDS011;4926;42.670;23.316;2023-02-18T07:21:19;22.50;;;12.00;;
9773;SDS011;4926;42.670;23.316;2023-02-18T07:23:45;19.88;;;11.75;;
9773;SDS011;4926;42.670;23.316;2023-02-18T07:26:14;24.67;;;11.00;;
9773;SDS011;4926;42.670;23.316;2023-02-18T07:28:41;21.42;;;12.05;;
9773;SDS011;4926;42.670;23.316;2023-02-18T07:31:08;23.02;;;12.27;;
9773;SDS011;4926;42.670;23.316;2023-02-18T07:33:35;18.85;;;10.23;;
9773;SDS011;4926;42.670;23.316;2023-02-18T07:36:01;22.00;;;11.88;;
9773;SDS011;4926;42.670;23.316;2023-02-18T07:38:30;21.23;;;11.82;;
9773;SDS011;4926;42.670;23.316;2023-02-18T07:40:59;18.65;;;11.25;;
9773;SDS011;4926;42.670;23.316;2023-02-18T07:43:28;23.60;;;11.50;;
9773;SDS011;4926;42.670;23.316;2023-02-18T07:45:55;21.88;;;12.57;;
9773;SDS011;4926;42.670;23.316;2023-02-18T07:48:21;18.23;;;11.52;;
9773;SDS011;4926;42.670;23.316;2023-02-18T07:50:48;22.85;;;12.38;;
9773;SDS011;4926;42.670;23.316;2023-02-18T07:53:15;21.58;;;12.00;;
9773;SDS011;4926;42.670;23.316;2023-02-18T07:55:43;18.48;;;11.55;;
9773;SDS011;4926;42.670;23.316;2023-02-18T07:58:16;23.58;;;12.73;;
9773;SDS011;4926;42.670;23.316;2023-02-18T08:00:44;21.75;;;12.20;;
9773;SDS011;4926;42.670;23.316;2023-02-18T08:03:13;25.55;;;12.30;;
9773;SDS011;4926;42.670;23.316;2023-02-18T08:05:40;19.75;;;11.93;;
9773;SDS011;4926;42.670;23.316;2023-02-18T08:08:08;24.42;;;13.52;;
9773;SDS011;4926;42.670;23.316;2023-02-18T08:10:37;22.42;;;12.73;;
9773;SDS011;4926;42.670;23.316;2023-02-18T08:13:05;20.52;;;12.07;;
9773;SDS011;4926;42.670;23.316;2023-02-18T08:15:35;20.15;;;12.38;;
9773;SDS011;4926;42.670;23.316;2023-02-18T08:18:02;22.45;;;12.77;;
9773;SDS011;4926;42.670;23.316;2023-02-18T08:20:34;28.35;;;12.38;;
9773;SDS011;4926;42.670;23.316;2023-02-18T08:23:04;21.85;;;13.00;;
9773;SDS011;4926;42.670;23.316;2023-02-18T08:25:31;22.40;;;12.70;;
9773;SDS011;4926;42.670;23.316;2023-02-18T08:27:58;21.80;;;12.05;;
9773;SDS011;4926;42.670;23.316;2023-02-18T08:30:28;20.48;;;11.32;;
9773;SDS011;4926;42.670;23.316;2023-02-18T08:33:01;18.45;;;11.45;;
9773;SDS011;4926;42.670;23.316;2023-02-18T08:35:27;18.88;;;12.30;;
9773;SDS011;4926;42.670;23.316;2023-02-18T08:37:57;20.10;;;12.07;;
9773;SDS011;4926;42.670;23.316;2023-02-18T08:40:39;19.77;;;12.30;;
9773;SDS011;4926;42.670;23.316;2023-02-18T08:43:06;23.98;;;12.75;;
9773;SDS011;4926;42.670;23.316;2023-02-18T08:45:35;21.67;;;12.63;;
9773;SDS011;4926;42.670;23.316;2023-02-18T08:48:02;20.92;;;11.40;;
9773;SDS011;4926;42.670;23.316;2023-02-18T08:50:29;17.95;;;11.70;;
9773;SDS011;4926;42.670;23.316;2023-02-18T08:52:56;19.15;;;11.77;;
9773;SDS011;4926;42.670;23.316;2023-02-18T08:55:24;20.45;;;11.77;;
9773;SDS011;4926;42.670;23.316;2023-02-18T08:57:56;21.88;;;12.93;;
9773;SDS011;4926;42.670;23.316;2023-02-18T09:00:22;28.85;;;12.60;;
9773;SDS011;4926;42.670;23.316;2023-02-18T09:02:51;30.77;;;13.00;;
9773;SDS011;4926;42.670;23.316;2023-02-18T09:05:18;20.65;;;12.65;;
9773;SDS011;4926;42.670;23.316;2023-02-18T09:07:45;22.02;;;12.57;;
9773;SDS011;4926;42.670;23.316;2023-02-18T09:10:15;20.55;;;12.60;;
9773;SDS011;4926;42.670;23.316;2023-02-18T09:12:41;26.55;;;12.35;;
9773;SDS011;4926;42.670;23.316;2023-02-18T09:15:08;23.13;;;12.95;;
9773;SDS011;4926;42.670;23.316;2023-02-18T09:17:35;22.10;;;12.65;;
9773;SDS011;4926;42.670;23.316;2023-02-18T09:20:03;21.88;;;11.95;;
9773;SDS011;4926;42.670;23.316;2023-02-18T09:22:31;27.15;;;12.60;;
9773;SDS011;4926;42.670;23.316;2023-02-18T09:25:02;18.33;;;11.70;;
9773;SDS011;4926;42.670;23.316;2023-02-18T09:27:29;23.40;;;12.27;;
9773;SDS011;4926;42.670;23.316;2023-02-18T09:29:58;23.52;;;12.02;;
9773;SDS011;4926;42.670;23.316;2023-02-18T09:32:25;24.70;;;12.82;;
9773;SDS011;4926;42.670;23.316;2023-02-18T09:34:52;29.88;;;12.15;;
9773;SDS011;4926;42.670;23.316;2023-02-18T09:37:21;34.67;;;12.35;;
9773;SDS011;4926;42.670;23.316;2023-02-18T09:39:51;19.88;;;12.75;;
9773;SDS011;4926;42.670;23.316;2023-02-18T09:42:26;22.17;;;12.05;;
9773;SDS011;4926;42.670;23.316;2023-02-18T09:44:57;19.67;;;12.35;;
9773;SDS011;4926;42.670;23.316;2023-02-18T09:47:29;23.05;;;12.15;;
9773;SDS011;4926;42.670;23.316;2023-02-18T09:49:59;27.65;;;11.70;;
9773;SDS011;4926;42.670;23.316;2023-02-18T09:52:35;19.77;;;11.20;;
9773;SDS011;4926;42.670;23.316;2023-02-18T09:55:16;18.85;;;12.13;;
9773;SDS011;4926;42.670;23.316;2023-02-18T09:57:45;20.25;;;12.70;;
9773;SDS011;4926;42.670;23.316;2023-02-18T10:00:15;24.63;;;12.73;;
9773;SDS011;4926;42.670;23.316;2023-02-18T10:02:49;25.48;;;12.77;;
9773;SDS011;4926;42.670;23.316;2023-02-18T10:05:20;23.50;;;13.65;;
9773;SDS011;4926;42.670;23.316;2023-02-18T10:07:50;18.50;;;12.52;;
9773;SDS011;4926;42.670;23.316;2023-02-18T10:10:31;22.77;;;13.45;;
9773;SDS011;4926;42.670;23.316;2023-02-18T10:13:02;23.20;;;13.45;;
9773;SDS011;4926;42.670;23.316;2023-02-18T10:15:32;22.23;;;12.40;;
9773;SDS011;4926;42.670;23.316;2023-02-18T10:18:00;23.90;;;12.77;;
9773;SDS011;4926;42.670;23.316;2023-02-18T10:20:30;23.75;;;11.90;;
9773;SDS011;4926;42.670;23.316;2023-02-18T10:23:00;16.98;;;11.43;;
9773;SDS011;4926;42.670;23.316;2023-02-18T10:25:30;19.33;;;11.52;;
9773;SDS011;4926;42.670;23.316;2023-02-18T10:28:00;19.48;;;10.48;;
9773;SDS011;4926;42.670;23.316;2023-02-18T10:30:29;16.70;;;10.93;;
9773;SDS011;4926;42.670;23.316;2023-02-18T10:33:06;15.65;;;10.27;;
9773;SDS011;4926;42.670;23.316;2023-02-18T10:35:45;18.77;;;11.35;;
9773;SDS011;4926;42.670;23.316;2023-02-18T10:38:20;20.90;;;12.65;;
9773;SDS011;4926;42.670;23.316;2023-02-18T10:40:59;22.48;;;13.00;;
9773;SDS011;4926;42.670;23.316;2023-02-18T10:43:37;18.70;;;12.43;;
9773;SDS011;4926;42.670;23.316;2023-02-18T10:46:18;19.85;;;12.40;;
9773;SDS011;4926;42.670;23.316;2023-02-18T10:48:59;24.55;;;12.57;;
9773;SDS011;4926;42.670;23.316;2023-02-18T10:51:34;18.98;;;11.48;;
9773;SDS011;4926;42.670;23.316;2023-02-18T10:54:06;20.10;;;12.35;;
9773;SDS011;4926;42.670;23.316;2023-02-18T10:56:34;16.63;;;11.18;;
9773;SDS011;4926;42.670;23.316;2023-02-18T10:59:12;18.63;;;10.95;;
9773;SDS011;4926;42.670;23.316;2023-02-18T11:01:40;16.02;;;10.80;;
9773;SDS011;4926;42.670;23.316;2023-02-18T11:04:11;17.80;;;11.05;;
9773;SDS011;4926;42.670;23.316;2023-02-18T11:06:41;23.05;;;11.25;;
9773;SDS011;4926;42.670;23.316;2023-02-18T11:09:22;14.45;;;9.57;;
9773;SDS011;4926;42.670;23.316;2023-02-18T11:11:57;17.10;;;11.05;;
9773;SDS011;4926;42.670;23.316;2023-02-18T11:14:36;20.30;;;10.57;;
9773;SDS011;4926;42.670;23.316;2023-02-18T11:17:15;18.50;;;10.45;;
9773;SDS011;4926;42.670;23.316;2023-02-18T11:19:50;13.88;;;7.40;;
9773;SDS011;4926;42.670;23.316;2023-02-18T11:22:22;17.00;;;8.27;;
9773;SDS011;4926;42.670;23.316;2023-02-18T11:24:55;13.07;;;7.43;;
9773;SDS011;4926;42.670;23.316;2023-02-18T11:27:25;22.70;;;7.10;;
9773;SDS011;4926;42.670;23.316;2023-02-18T11:29:58;11.07;;;7.43;;
9773;SDS011;4926;42.670;23.316;2023-02-18T11:32:33;8.35;;;5.07;;
9773;SDS011;4926;42.670;23.316;2023-02-18T11:35:02;7.35;;;4.15;;
9773;SDS011;4926;42.670;23.316;2023-02-18T11:37:31;8.10;;;4.60;;
9773;SDS011;4926;42.670;23.316;2023-02-18T11:40:02;8.75;;;4.43;;
9773;SDS011;4926;42.670;23.316;2023-02-18T11:42:33;5.72;;;4.35;;
9773;SDS011;4926;42.670;23.316;2023-02-18T11:45:01;11.57;;;4.97;;
9773;SDS011;4926;42.670;23.316;2023-02-18T11:47:31;6.70;;;4.00;;
9773;SDS011;4926;42.670;23.316;2023-02-18T11:50:09;7.40;;;3.50;;
9773;SDS011;4926;42.670;23.316;2023-02-18T11:52:46;6.47;;;3.78;;
9773;SDS011;4926;42.670;23.316;2023-02-18T11:55:17;7.15;;;3.15;;
9773;SDS011;4926;42.670;23.316;2023-02-18T11:57:50;5.32;;;2.95;;
9773;SDS011;4926;42.670;23.316;2023-02-18T12:00:22;5.28;;;2.70;;
9773;SDS011;4926;42.670;23.316;2023-02-18T12:02:57;4.35;;;2.67;;
9773;SDS011;4926;42.670;23.316;2023-02-18T12:05:27;6.18;;;2.70;;
9773;SDS011;4926;42.670;23.316;2023-02-18T12:07:59;4.18;;;2.33;;
9773;SDS011;4926;42.670;23.316;2023-02-18T12:10:33;6.70;;;3.00;;
9773;SDS011;4926;42.670;23.316;2023-02-18T12:13:05;8.07;;;3.50;;
9773;SDS011;4926;42.670;23.316;2023-02-18T12:15:45;4.30;;;3.17;;
9773;SDS011;4926;42.670;23.316;2023-02-18T12:18:24;7.30;;;3.60;;
9773;SDS011;4926;42.670;23.316;2023-02-18T12:21:11;3.65;;;2.60;;
9773;SDS011;4926;42.670;23.316;2023-02-18T12:23:55;6.55;;;3.03;;
9773;SDS011;4926;42.670;23.316;2023-02-18T12:26:31;4.95;;;3.13;;
9773;SDS011;4926;42.670;23.316;2023-02-18T12:29:18;6.80;;;3.38;;
9773;SDS011;4926;42.670;23.316;2023-02-18T12:32:01;4.75;;;3.00;;
9773;SDS011;4926;42.670;23.316;2023-02-18T12:34:47;6.28;;;3.45;;
9773;SDS011;4926;42.670;23.316;2023-02-18T12:37:30;6.43;;;3.70;;
9773;SDS011;4926;42.670;23.316;2023-02-18T12:40:25;6.47;;;3.78;;
9773;SDS011;4926;42.670;23.316;2023-02-18T12:43:08;8.93;;;4.22;;
9773;SDS011;4926;42.670;23.316;2023-02-18T12:45:51;7.65;;;4.25;;
9773;SDS011;4926;42.670;23.316;2023-02-18T12:48:37;7.53;;;3.78;;
9773;SDS011;4926;42.670;23.316;2023-02-18T12:51:18;4.47;;;3.00;;
9773;SDS011;4926;42.670;23.316;2023-02-18T12:53:58;3.85;;;3.22;;
9773;SDS011;4926;42.670;23.316;2023-02-18T12:56:36;5.43;;;3.78;;
9773;SDS011;4926;42.670;23.316;2023-02-18T12:59:17;8.27;;;3.88;;
9773;SDS011;4926;42.670;23.316;2023-02-18T13:02:02;6.57;;;3.80;;
9773;SDS011;4926;42.670;23.316;2023-02-18T13:04:44;5.28;;;3.10;;
9773;SDS011;4926;42.670;23.316;2023-02-18T13:07:21;6.03;;;3.40;;
9773;SDS011;4926;42.670;23.316;2023-02-18T13:10:05;4.20;;;2.78;;
9773;SDS011;4926;42.670;23.316;2023-02-18T13:12:50;3.83;;;2.90;;
9773;SDS011;4926;42.670;23.316;2023-02-18T13:15:26;6.47;;;3.25;;
9773;SDS011;4926;42.670;23.316;2023-02-18T13:18:02;4.78;;;3.05;;
9773;SDS011;4926;42.670;23.316;2023-02-18T13:20:35;4.32;;;2.80;;
9773;SDS011;4926;42.670;23.316;2023-02-18T13:23:06;7.70;;;3.83;;
9773;SDS011;4926;42.670;23.316;2023-02-18T13:25:41;6.60;;;3.38;;
9773;SDS011;4926;42.670;23.316;2023-02-18T13:28:10;5.68;;;3.17;;
9773;SDS011;4926;42.670;23.316;2023-02-18T13:30:49;5.85;;;3.65;;
9773;SDS011;4926;42.670;23.316;2023-02-18T13:33:26;7.00;;;3.83;;
9773;SDS011;4926;42.670;23.316;2023-02-18T13:36:04;5.97;;;3.17;;
9773;SDS011;4926;42.670;23.316;2023-02-18T13:38:48;7.68;;;4.50;;
9773;SDS011;4926;42.670;23.316;2023-02-18T13:41:21;8.15;;;4.65;;
9773;SDS011;4926;42.670;23.316;2023-02-18T13:43:56;6.25;;;4.03;;
9773;SDS011;4926;42.670;23.316;2023-02-18T13:46:24;6.00;;;4.00;;
9773;SDS011;4926;42.670;23.316;2023-02-18T13:48:52;5.90;;;4.18;;
9773;SDS011;4926;42.670;23.316;2023-02-18T13:51:29;5.65;;;4.15;;
9773;SDS011;4926;42.670;23.316;2023-02-18T13:53:59;6.68;;;4.57;;
9773;SDS011;4926;42.670;23.316;2023-02-18T13:56:30;6.18;;;4.35;;
9773;SDS011;4926;42.670;23.316;2023-02-18T13:58:59;7.30;;;4.30;;
9773;SDS011;4926;42.670;23.316;2023-02-18T14:01:38;9.68;;;4.72;;
9773;SDS011;4926;42.670;23.316;2023-02-18T14:07:28;6.07;;;4.03;;
9773;SDS011;4926;42.670;23.316;2023-02-18T14:10:06;6.03;;;4.30;;
9773;SDS011;4926;42.670;23.316;2023-02-18T14:13:00;6.63;;;4.13;;
9773;SDS011;4926;42.670;23.316;2023-02-18T14:15:49;6.80;;;4.30;;
9773;SDS011;4926;42.670;23.316;2023-02-18T14:18:24;7.50;;;4.68;;
9773;SDS011;4926;42.670;23.316;2023-02-18T14:23:57;6.70;;;4.43;;
9773;SDS011;4926;42.670;23.316;2023-02-18T14:29:19;6.57;;;4.10;;
9773;SDS011;4926;42.670;23.316;2023-02-18T14:31:52;10.13;;;4.70;;
9773;SDS011;4926;42.670;23.316;2023-02-18T14:43:23;5.55;;;4.15;;
9773;SDS011;4926;42.670;23.316;2023-02-18T14:46:07;8.45;;;4.63;;
9773;SDS011;4926;42.670;23.316;2023-02-18T14:48:45;7.05;;;4.18;;
9773;SDS011;4926;42.670;23.316;2023-02-18T14:51:24;6.88;;;4.60;;
9773;SDS011;4926;42.670;23.316;2023-02-18T14:53:56;7.05;;;4.60;;
9773;SDS011;4926;42.670;23.316;2023-02-18T14:56:29;10.15;;;5.05;;
9773;SDS011;4926;42.670;23.316;2023-02-18T14:58:58;7.75;;;4.57;;
9773;SDS011;4926;42.670;23.316;2023-02-18T15:01:28;9.00;;;5.13;;
9773;SDS011;4926;42.670;23.316;2023-02-18T15:03:56;9.57;;;5.30;;
9773;SDS011;4926;42.670;23.316;2023-02-18T15:06:27;8.82;;;5.03;;
9773;SDS011;4926;42.670;23.316;2023-02-18T15:08:55;10.40;;;5.15;;
9773;SDS011;4926;42.670;23.316;2023-02-18T15:11:31;7.00;;;4.93;;
9773;SDS011;4926;42.670;23.316;2023-02-18T15:14:03;8.45;;;4.53;;
9773;SDS011;4926;42.670;23.316;2023-02-18T15:16:36;9.50;;;5.03;;
9773;SDS011;4926;42.670;23.316;2023-02-18T15:19:11;8.77;;;4.80;;
9773;SDS011;4926;42.670;23.316;2023-02-18T15:21:41;7.80;;;5.15;;
9773;SDS011;4926;42.670;23.316;2023-02-18T15:24:14;8.00;;;4.88;;
9773;SDS011;4926;42.670;23.316;2023-02-18T15:26:51;8.07;;;4.40;;
9773;SDS011;4926;42.670;23.316;2023-02-18T15:29:20;7.75;;;4.60;;
9773;SDS011;4926;42.670;23.316;2023-02-18T15:31:50;7.82;;;5.07;;
9773;SDS011;4926;42.670;23.316;2023-02-18T15:34:33;8.98;;;4.90;;
9773;SDS011;4926;42.670;23.316;2023-02-18T15:37:06;7.60;;;5.30;;